sensor_id;sensor_type;location;lat;lon;timestamp;noise_LAeq;noise_LA_min;noise_LA_max;noise_LA01;noise_LA95
67310;Laerm;65444;51.438;5.982;2023-01-29T00:00:03;32.58;30.37;38.80;;
67310;Laerm;65444;51.438;5.982;2023-01-29T00:00:21;37.48;30.15;49.89;;
67310;Laerm;65444;51.438;5.982;2023-01-29T00:00:32;33.45;30.31;41.92;;
67310;Laerm;65444;51.438;5.982;2023-01-29T00:00:42;36.61;30.58;46.84;;
67310;Laerm;65444;51.438;5.982;2023-01-29T00:00:52;32.91;29.83;39.40;;
67310;Laerm;65444;51.438;5.982;2023-01-29T00:01:03;33.69;30.18;42.32;;
67310;Laerm;65444;51.438;5.982;2023-01-29T00:01:13;33.85;30.74;43.49;;
67310;Laerm;65444;51.438;5.982;2023-01-29T00:01:23;35.97;31.30;43.15;;
67310;Laerm;65444;51.438;5.982;2023-01-29T00:01:34;35.55;31.98;41.86;;
67310;Laerm;65444;51.438;5.982;2023-01-29T00:01:44;32.22;30.29;34.21;;
67310;Laerm;65444;51.438;5.982;2023-01-29T00:01:57;34.41;30.64;38.04;;
67310;Laerm;65444;51.438;5.982;2023-01-29T00:02:07;32.85;30.78;34.99;;
67310;Laerm;65444;51.438;5.982;2023-01-29T00:02:17;32.58;30.86;37.62;;
67310;Laerm;65444;51.438;5.982;2023-01-29T00:02:28;33.08;30.31;38.13;;
67310;Laerm;65444;51.438;5.982;2023-01-29T00:02:38;33.72;30.48;48.95;;
67310;Laerm;65444;51.438;5.982;2023-01-29T00:02:48;32.22;30.52;34.91;;
67310;Laerm;65444;51.438;5.982;2023-01-29T00:02:59;31.78;29.89;34.49;;
67310;Laerm;65444;51.438;5.982;2023-01-29T00:03:09;32.02;30.19;37.64;;
67310;Laerm;65444;51.438;5.982;2023-01-29T00:03:19;32.27;30.56;35.20;;
67310;Laerm;65444;51.438;5.982;2023-01-29T00:03:30;32.59;30.53;39.05;;
67310;Laerm;65444;51.438;5.982;2023-01-29T00:03:40;33.01;30.80;40.76;;
67310;Laerm;65444;51.438;5.982;2023-01-29T00:03:50;32.71;30.73;39.15;;
67310;Laerm;65444;51.438;5.982;2023-01-29T00:04:01;32.24;29.77;34.44;;
67310;Laerm;65444;51.438;5.982;2023-01-29T00:04:11;32.40;30.27;34.44;;
67310;Laerm;65444;51.438;5.982;2023-01-29T00:04:21;32.62;31.02;38.63;;
67310;Laerm;65444;51.438;5.982;2023-01-29T00:04:34;33.42;30.62;39.87;;
67310;Laerm;65444;51.438;5.982;2023-01-29T00:04:44;34.73;32.11;38.10;;
67310;Laerm;65444;51.438;5.982;2023-01-29T00:04:55;32.99;30.95;36.46;;
67310;Laerm;65444;51.438;5.982;2023-01-29T00:05:05;33.05;31.31;35.78;;
67310;Laerm;65444;51.438;5.982;2023-01-29T00:05:16;36.65;30.97;51.08;;
67310;Laerm;65444;51.438;5.982;2023-01-29T00:05:26;35.79;32.91;39.50;;
67310;Laerm;65444;51.438;5.982;2023-01-29T00:05:36;39.53;34.30;43.56;;
67310;Laerm;65444;51.438;5.982;2023-01-29T00:05:47;43.24;37.22;48.77;;
67310;Laerm;65444;51.438;5.982;2023-01-29T00:05:58;47.79;35.05;54.44;;
67310;Laerm;65444;51.438;5.982;2023-01-29T00:06:09;36.16;33.05;39.60;;
67310;Laerm;65444;51.438;5.982;2023-01-29T00:06:19;34.07;31.79;37.26;;
67310;Laerm;65444;51.438;5.982;2023-01-29T00:06:29;34.35;31.71;39.99;;
67310;Laerm;65444;51.438;5.982;2023-01-29T00:06:40;34.32;31.99;43.95;;
67310;Laerm;65444;51.438;5.982;2023-01-29T00:06:50;33.92;31.85;37.07;;
67310;Laerm;65444;51.438;5.982;2023-01-29T00:07:00;33.70;31.42;42.12;;
67310;Laerm;65444;51.438;5.982;2023-01-29T00:07:16;33.26;31.58;37.32;;
67310;Laerm;65444;51.438;5.982;2023-01-29T00:07:26;33.52;31.77;38.76;;
67310;Laerm;65444;51.438;5.982;2023-01-29T00:07:37;33.39;31.42;37.90;;
67310;Laerm;65444;51.438;5.982;2023-01-29T00:07:47;33.38;31.05;41.48;;
67310;Laerm;65444;51.438;5.982;2023-01-29T00:07:58;34.14;31.82;40.73;;
67310;Laerm;65444;51.438;5.982;2023-01-29T00:08:08;33.74;31.72;36.98;;
67310;Laerm;65444;51.438;5.982;2023-01-29T00:08:18;34.23;32.33;37.50;;
67310;Laerm;65444;51.438;5.982;2023-01-29T00:08:28;36.28;33.02;42.57;;
67310;Laerm;65444;51.438;5.982;2023-01-29T00:08:39;35.38;32.43;40.35;;
67310;Laerm;65444;51.438;5.982;2023-01-29T00:08:49;34.55;31.52;48.39;;
67310;Laerm;65444;51.438;5.982;2023-01-29T00:08:59;34.34;31.94;40.35;;
67310;Laerm;65444;51.438;5.982;2023-01-29T00:09:10;33.66;31.31;39.03;;
67310;Laerm;65444;51.438;5.982;2023-01-29T00:09:20;33.50;31.29;39.93;;
67310;Laerm;65444;51.438;5.982;2023-01-29T00:09:31;33.50;31.64;36.27;;
67310;Laerm;65444;51.438;5.982;2023-01-29T00:09:41;33.44;30.63;37.66;;
67310;Laerm;65444;51.438;5.982;2023-01-29T00:09:51;33.00;31.07;35.10;;
67310;Laerm;65444;51.438;5.982;2023-01-29T00:10:01;33.10;30.69;35.52;;
67310;Laerm;65444;51.438;5.982;2023-01-29T00:10:12;33.47;31.12;40.10;;
67310;Laerm;65444;51.438;5.982;2023-01-29T00:10:23;33.53;31.40;37.79;;
67310;Laerm;65444;51.438;5.982;2023-01-29T00:10:33;33.11;30.68;38.65;;
67310;Laerm;65444;51.438;5.982;2023-01-29T00:10:44;33.00;30.98;36.55;;
67310;Laerm;65444;51.438;5.982;2023-01-29T00:10:59;33.86;31.22;38.92;;
67310;Laerm;65444;51.438;5.982;2023-01-29T00:11:09;33.60;31.11;38.00;;
67310;Laerm;65444;51.438;5.982;2023-01-29T00:11:19;32.67;30.36;35.01;;
67310;Laerm;65444;51.438;5.982;2023-01-29T00:11:29;32.75;31.03;34.60;;
67310;Laerm;65444;51.438;5.982;2023-01-29T00:11:41;32.45;30.79;36.23;;
67310;Laerm;65444;51.438;5.982;2023-01-29T00:11:51;32.16;30.27;35.31;;
67310;Laerm;65444;51.438;5.982;2023-01-29T00:12:01;32.62;30.60;37.45;;
67310;Laerm;65444;51.438;5.982;2023-01-29T00:12:11;32.85;30.52;37.16;;
67310;Laerm;65444;51.438;5.982;2023-01-29T00:12:22;33.16;30.55;39.17;;
67310;Laerm;65444;51.438;5.982;2023-01-29T00:12:32;32.83;30.87;39.27;;
67310;Laerm;65444;51.438;5.982;2023-01-29T00:12:42;33.38;30.89;43.14;;
67310;Laerm;65444;51.438;5.982;2023-01-29T00:12:52;32.82;31.05;35.15;;
67310;Laerm;65444;51.438;5.982;2023-01-29T00:13:03;33.48;31.22;38.45;;
67310;Laerm;65444;51.438;5.982;2023-01-29T00:13:14;32.72;30.87;37.67;;
67310;Laerm;65444;51.438;5.982;2023-01-29T00:13:24;32.72;30.04;38.20;;
67310;Laerm;65444;51.438;5.982;2023-01-29T00:13:35;33.19;30.73;39.21;;
67310;Laerm;65444;51.438;5.982;2023-01-29T00:13:48;33.01;30.92;40.55;;
67310;Laerm;65444;51.438;5.982;2023-01-29T00:13:58;32.85;30.45;36.62;;
67310;Laerm;65444;51.438;5.982;2023-01-29T00:14:08;32.69;30.78;36.28;;
67310;Laerm;65444;51.438;5.982;2023-01-29T00:14:19;32.98;30.56;37.54;;
67310;Laerm;65444;51.438;5.982;2023-01-29T00:14:31;32.94;30.75;37.82;;
67310;Laerm;65444;51.438;5.982;2023-01-29T00:14:41;32.85;30.45;39.21;;
67310;Laerm;65444;51.438;5.982;2023-01-29T00:14:51;32.49;30.19;36.61;;
67310;Laerm;65444;51.438;5.982;2023-01-29T00:15:02;32.68;30.46;37.65;;
67310;Laerm;65444;51.438;5.982;2023-01-29T00:15:14;33.51;30.80;40.81;;
67310;Laerm;65444;51.438;5.982;2023-01-29T00:15:25;38.79;33.40;45.28;;
67310;Laerm;65444;51.438;5.982;2023-01-29T00:15:35;38.83;34.71;44.44;;
67310;Laerm;65444;51.438;5.982;2023-01-29T00:15:55;42.63;36.50;46.21;;
67310;Laerm;65444;51.438;5.982;2023-01-29T00:16:05;41.95;35.35;51.08;;
67310;Laerm;65444;51.438;5.982;2023-01-29T00:16:15;40.46;35.42;45.29;;
67310;Laerm;65444;51.438;5.982;2023-01-29T00:16:26;34.84;31.86;41.04;;
67310;Laerm;65444;51.438;5.982;2023-01-29T00:16:36;34.14;32.08;37.29;;
67310;Laerm;65444;51.438;5.982;2023-01-29T00:16:46;34.94;32.35;37.88;;
67310;Laerm;65444;51.438;5.982;2023-01-29T00:17:03;34.14;32.22;36.72;;
67310;Laerm;65444;51.438;5.982;2023-01-29T00:17:13;35.14;32.23;39.08;;
67310;Laerm;65444;51.438;5.982;2023-01-29T00:17:23;35.49;33.48;37.43;;
67310;Laerm;65444;51.438;5.982;2023-01-29T00:17:33;34.80;32.52;43.65;;
67310;Laerm;65444;51.438;5.982;2023-01-29T00:17:44;33.59;31.91;36.77;;
67310;Laerm;65444;51.438;5.982;2023-01-29T00:17:54;33.44;30.78;35.34;;
67310;Laerm;65444;51.438;5.982;2023-01-29T00:18:04;34.49;31.91;39.17;;
67310;Laerm;65444;51.438;5.982;2023-01-29T00:18:14;35.01;32.82;38.47;;
67310;Laerm;65444;51.438;5.982;2023-01-29T00:18:25;41.12;33.88;49.85;;
67310;Laerm;65444;51.438;5.982;2023-01-29T00:18:39;37.69;33.51;41.99;;
67310;Laerm;65444;51.438;5.982;2023-01-29T00:18:49;35.28;32.49;38.45;;
67310;Laerm;65444;51.438;5.982;2023-01-29T00:19:00;32.95;30.96;35.86;;
67310;Laerm;65444;51.438;5.982;2023-01-29T00:19:11;33.09;30.79;35.24;;
67310;Laerm;65444;51.438;5.982;2023-01-29T00:19:21;32.74;31.00;35.71;;
67310;Laerm;65444;51.438;5.982;2023-01-29T00:19:31;33.45;31.53;39.72;;
67310;Laerm;65444;51.438;5.982;2023-01-29T00:19:41;33.03;31.20;36.78;;
67310;Laerm;65444;51.438;5.982;2023-01-29T00:19:52;33.31;31.46;36.05;;
67310;Laerm;65444;51.438;5.982;2023-01-29T00:20:02;34.09;31.57;36.74;;
67310;Laerm;65444;51.438;5.982;2023-01-29T00:20:12;36.22;33.72;40.20;;
67310;Laerm;65444;51.438;5.982;2023-01-29T00:20:23;40.60;36.69;44.74;;
67310;Laerm;65444;51.438;5.982;2023-01-29T00:20:33;38.01;33.80;42.85;;
67310;Laerm;65444;51.438;5.982;2023-01-29T00:20:43;34.77;31.86;38.96;;
67310;Laerm;65444;51.438;5.982;2023-01-29T00:20:53;37.00;32.93;42.36;;
67310;Laerm;65444;51.438;5.982;2023-01-29T00:21:10;33.93;30.96;38.70;;
67310;Laerm;65444;51.438;5.982;2023-01-29T00:21:21;33.21;30.69;37.67;;
67310;Laerm;65444;51.438;5.982;2023-01-29T00:21:31;33.79;31.38;39.98;;
67310;Laerm;65444;51.438;5.982;2023-01-29T00:21:42;33.67;30.86;39.34;;
67310;Laerm;65444;51.438;5.982;2023-01-29T00:21:52;34.16;30.92;39.57;;
67310;Laerm;65444;51.438;5.982;2023-01-29T00:22:02;34.33;30.49;42.10;;
67310;Laerm;65444;51.438;5.982;2023-01-29T00:22:13;33.18;30.37;38.51;;
67310;Laerm;65444;51.438;5.982;2023-01-29T00:22:23;33.83;30.60;41.67;;
67310;Laerm;65444;51.438;5.982;2023-01-29T00:22:33;33.52;31.12;39.34;;
67310;Laerm;65444;51.438;5.982;2023-01-29T00:22:43;33.27;30.88;37.56;;
67310;Laerm;65444;51.438;5.982;2023-01-29T00:22:54;33.12;30.46;38.17;;
67310;Laerm;65444;51.438;5.982;2023-01-29T00:23:04;32.61;30.61;39.41;;
67310;Laerm;65444;51.438;5.982;2023-01-29T00:23:14;33.80;30.74;37.04;;
67310;Laerm;65444;51.438;5.982;2023-01-29T00:23:24;33.14;30.55;35.62;;
67310;Laerm;65444;51.438;5.982;2023-01-29T00:23:35;32.36;30.87;33.96;;
67310;Laerm;65444;51.438;5.982;2023-01-29T00:23:45;32.17;30.65;33.82;;
67310;Laerm;65444;51.438;5.982;2023-01-29T00:23:55;32.23;30.66;35.17;;
67310;Laerm;65444;51.438;5.982;2023-01-29T00:24:05;32.10;30.32;34.06;;
67310;Laerm;65444;51.438;5.982;2023-01-29T00:24:16;31.79;29.88;33.35;;
67310;Laerm;65444;51.438;5.982;2023-01-29T00:24:26;31.70;30.13;33.32;;
67310;Laerm;65444;51.438;5.982;2023-01-29T00:24:36;32.06;30.25;34.22;;
67310;Laerm;65444;51.438;5.982;2023-01-29T00:24:46;32.47;30.25;34.15;;
67310;Laerm;65444;51.438;5.982;2023-01-29T00:25:06;32.53;30.42;34.55;;
67310;Laerm;65444;51.438;5.982;2023-01-29T00:25:16;33.36;30.32;42.92;;
67310;Laerm;65444;51.438;5.982;2023-01-29T00:25:26;32.26;29.22;34.53;;
67310;Laerm;65444;51.438;5.982;2023-01-29T00:25:37;32.04;30.26;33.45;;
67310;Laerm;65444;51.438;5.982;2023-01-29T00:25:47;32.27;30.78;34.61;;
67310;Laerm;65444;51.438;5.982;2023-01-29T00:26:00;32.54;30.23;35.51;;
67310;Laerm;65444;51.438;5.982;2023-01-29T00:26:10;32.68;30.28;36.69;;
67310;Laerm;65444;51.438;5.982;2023-01-29T00:26:21;32.82;30.74;38.58;;
67310;Laerm;65444;51.438;5.982;2023-01-29T00:26:31;32.26;30.41;35.30;;
67310;Laerm;65444;51.438;5.982;2023-01-29T00:26:41;32.41;30.60;34.51;;
67310;Laerm;65444;51.438;5.982;2023-01-29T00:26:52;32.77;31.10;35.11;;
67310;Laerm;65444;51.438;5.982;2023-01-29T00:27:02;36.92;32.14;44.27;;
67310;Laerm;65444;51.438;5.982;2023-01-29T00:27:12;37.10;33.76;41.70;;
67310;Laerm;65444;51.438;5.982;2023-01-29T00:27:23;36.69;32.41;42.74;;
67310;Laerm;65444;51.438;5.982;2023-01-29T00:27:33;34.12;31.57;37.55;;
67310;Laerm;65444;51.438;5.982;2023-01-29T00:27:43;34.11;31.98;38.03;;
67310;Laerm;65444;51.438;5.982;2023-01-29T00:27:54;33.80;31.71;35.80;;
67310;Laerm;65444;51.438;5.982;2023-01-29T00:28:04;37.57;32.96;49.49;;
67310;Laerm;65444;51.438;5.982;2023-01-29T00:28:14;36.13;33.20;39.97;;
67310;Laerm;65444;51.438;5.982;2023-01-29T00:28:24;35.59;33.35;39.31;;
67310;Laerm;65444;51.438;5.982;2023-01-29T00:28:35;34.46;32.37;39.52;;
67310;Laerm;65444;51.438;5.982;2023-01-29T00:28:45;34.41;31.83;37.52;;
67310;Laerm;65444;51.438;5.982;2023-01-29T00:28:58;33.58;31.01;37.95;;
67310;Laerm;65444;51.438;5.982;2023-01-29T00:29:11;32.86;30.59;34.69;;
67310;Laerm;65444;51.438;5.982;2023-01-29T00:29:22;32.82;31.04;34.65;;
67310;Laerm;65444;51.438;5.982;2023-01-29T00:29:32;33.02;30.94;36.72;;
67310;Laerm;65444;51.438;5.982;2023-01-29T00:29:42;33.18;31.24;36.25;;
67310;Laerm;65444;51.438;5.982;2023-01-29T00:29:52;33.01;30.77;38.15;;
67310;Laerm;65444;51.438;5.982;2023-01-29T00:30:21;32.86;30.68;37.69;;
67310;Laerm;65444;51.438;5.982;2023-01-29T00:30:31;33.90;31.28;38.35;;
67310;Laerm;65444;51.438;5.982;2023-01-29T00:30:41;32.81;31.05;37.64;;
67310;Laerm;65444;51.438;5.982;2023-01-29T00:30:52;33.01;30.89;38.90;;
67310;Laerm;65444;51.438;5.982;2023-01-29T00:31:18;32.37;30.54;34.36;;
67310;Laerm;65444;51.438;5.982;2023-01-29T00:31:32;35.31;30.68;48.77;;
67310;Laerm;65444;51.438;5.982;2023-01-29T00:31:43;34.53;32.22;38.35;;
67310;Laerm;65444;51.438;5.982;2023-01-29T00:31:53;33.38;30.91;39.01;;
67310;Laerm;65444;51.438;5.982;2023-01-29T00:32:03;32.50;30.73;35.02;;
67310;Laerm;65444;51.438;5.982;2023-01-29T00:32:14;34.43;31.40;37.98;;
67310;Laerm;65444;51.438;5.982;2023-01-29T00:32:24;33.07;30.99;38.53;;
67310;Laerm;65444;51.438;5.982;2023-01-29T00:32:34;32.56;31.26;34.09;;
67310;Laerm;65444;51.438;5.982;2023-01-29T00:32:45;32.76;30.47;34.70;;
67310;Laerm;65444;51.438;5.982;2023-01-29T00:32:56;32.78;30.89;34.27;;
67310;Laerm;65444;51.438;5.982;2023-01-29T00:33:06;32.50;30.84;36.31;;
67310;Laerm;65444;51.438;5.982;2023-01-29T00:33:16;32.47;30.89;35.38;;
67310;Laerm;65444;51.438;5.982;2023-01-29T00:33:27;32.92;30.78;35.50;;
67310;Laerm;65444;51.438;5.982;2023-01-29T00:33:38;32.75;30.78;35.33;;
67310;Laerm;65444;51.438;5.982;2023-01-29T00:33:48;33.05;30.78;35.72;;
67310;Laerm;65444;51.438;5.982;2023-01-29T00:33:58;33.07;31.03;37.01;;
67310;Laerm;65444;51.438;5.982;2023-01-29T00:34:08;32.71;30.97;35.76;;
67310;Laerm;65444;51.438;5.982;2023-01-29T00:34:19;33.02;30.71;36.17;;
67310;Laerm;65444;51.438;5.982;2023-01-29T00:34:30;34.16;31.92;37.87;;
67310;Laerm;65444;51.438;5.982;2023-01-29T00:34:40;33.33;31.42;34.96;;
67310;Laerm;65444;51.438;5.982;2023-01-29T00:34:50;33.89;31.53;36.07;;
67310;Laerm;65444;51.438;5.982;2023-01-29T00:35:01;34.60;31.71;41.43;;
67310;Laerm;65444;51.438;5.982;2023-01-29T00:35:11;34.27;32.30;39.18;;
67310;Laerm;65444;51.438;5.982;2023-01-29T00:35:21;34.02;31.42;44.14;;
67310;Laerm;65444;51.438;5.982;2023-01-29T00:35:31;35.44;32.09;40.24;;
67310;Laerm;65444;51.438;5.982;2023-01-29T00:35:42;36.03;31.36;42.49;;
67310;Laerm;65444;51.438;5.982;2023-01-29T00:35:52;33.17;31.14;36.99;;
67310;Laerm;65444;51.438;5.982;2023-01-29T00:36:03;33.83;31.75;38.67;;
67310;Laerm;65444;51.438;5.982;2023-01-29T00:36:17;41.11;32.70;51.52;;
67310;Laerm;65444;51.438;5.982;2023-01-29T00:36:27;41.16;36.44;48.03;;
67310;Laerm;65444;51.438;5.982;2023-01-29T00:36:38;36.37;33.40;39.33;;
67310;Laerm;65444;51.438;5.982;2023-01-29T00:36:48;33.51;30.74;35.73;;
67310;Laerm;65444;51.438;5.982;2023-01-29T00:36:58;32.30;30.70;34.48;;
67310;Laerm;65444;51.438;5.982;2023-01-29T00:37:13;32.96;30.90;35.27;;
67310;Laerm;65444;51.438;5.982;2023-01-29T00:37:24;32.65;31.04;34.66;;
67310;Laerm;65444;51.438;5.982;2023-01-29T00:37:34;33.09;31.01;35.05;;
67310;Laerm;65444;51.438;5.982;2023-01-29T00:37:44;32.54;31.00;34.14;;
67310;Laerm;65444;51.438;5.982;2023-01-29T00:37:55;35.39;31.61;39.38;;
67310;Laerm;65444;51.438;5.982;2023-01-29T00:38:05;42.09;34.97;46.48;;
67310;Laerm;65444;51.438;5.982;2023-01-29T00:38:18;33.76;31.29;40.90;;
67310;Laerm;65444;51.438;5.982;2023-01-29T00:38:28;34.37;31.61;38.74;;
67310;Laerm;65444;51.438;5.982;2023-01-29T00:38:39;34.89;32.55;37.08;;
67310;Laerm;65444;51.438;5.982;2023-01-29T00:38:58;37.84;33.02;44.96;;
67310;Laerm;65444;51.438;5.982;2023-01-29T00:39:08;35.52;31.66;39.69;;
67310;Laerm;65444;51.438;5.982;2023-01-29T00:39:21;33.03;31.00;36.92;;
67310;Laerm;65444;51.438;5.982;2023-01-29T00:39:34;35.61;31.01;40.24;;
67310;Laerm;65444;51.438;5.982;2023-01-29T00:39:47;36.13;32.81;41.88;;
67310;Laerm;65444;51.438;5.982;2023-01-29T00:39:58;33.21;30.67;34.88;;
67310;Laerm;65444;51.438;5.982;2023-01-29T00:40:11;37.04;32.50;41.62;;
67310;Laerm;65444;51.438;5.982;2023-01-29T00:40:21;37.19;32.39;47.02;;
67310;Laerm;65444;51.438;5.982;2023-01-29T00:40:32;33.72;31.42;35.36;;
67310;Laerm;65444;51.438;5.982;2023-01-29T00:41:08;33.90;31.24;37.24;;
67310;Laerm;65444;51.438;5.982;2023-01-29T00:41:36;32.62;30.50;39.64;;
67310;Laerm;65444;51.438;5.982;2023-01-29T00:42:05;33.44;30.71;37.73;;
67310;Laerm;65444;51.438;5.982;2023-01-29T00:42:34;36.80;31.13;44.42;;
67310;Laerm;65444;51.438;5.982;2023-01-29T00:43:06;37.40;31.89;43.35;;
67310;Laerm;65444;51.438;5.982;2023-01-29T00:43:45;35.05;31.49;41.67;;
67310;Laerm;65444;51.438;5.982;2023-01-29T00:44:14;35.60;31.79;45.15;;
67310;Laerm;65444;51.438;5.982;2023-01-29T00:44:43;37.17;32.52;43.57;;
67310;Laerm;65444;51.438;5.982;2023-01-29T00:45:09;39.03;33.87;45.04;;
67310;Laerm;65444;51.438;5.982;2023-01-29T00:45:19;34.12;31.65;37.35;;
67310;Laerm;65444;51.438;5.982;2023-01-29T00:45:33;37.66;32.81;43.34;;
67310;Laerm;65444;51.438;5.982;2023-01-29T00:45:43;34.71;32.23;39.46;;
67310;Laerm;65444;51.438;5.982;2023-01-29T00:45:53;33.22;31.38;36.65;;
67310;Laerm;65444;51.438;5.982;2023-01-29T00:46:03;32.95;31.15;35.01;;
67310;Laerm;65444;51.438;5.982;2023-01-29T00:46:16;32.75;30.84;37.48;;
67310;Laerm;65444;51.438;5.982;2023-01-29T00:46:26;32.68;30.62;35.30;;
67310;Laerm;65444;51.438;5.982;2023-01-29T00:46:37;32.58;30.55;34.69;;
67310;Laerm;65444;51.438;5.982;2023-01-29T00:46:47;32.49;30.86;34.44;;
67310;Laerm;65444;51.438;5.982;2023-01-29T00:46:58;32.76;30.93;35.70;;
67310;Laerm;65444;51.438;5.982;2023-01-29T00:47:11;32.85;30.95;37.62;;
67310;Laerm;65444;51.438;5.982;2023-01-29T00:47:39;33.14;30.52;43.24;;
67310;Laerm;65444;51.438;5.982;2023-01-29T00:47:50;34.02;30.93;43.75;;
67310;Laerm;65444;51.438;5.982;2023-01-29T00:48:00;32.69;30.42;37.61;;
67310;Laerm;65444;51.438;5.982;2023-01-29T00:48:10;33.10;30.59;38.69;;
67310;Laerm;65444;51.438;5.982;2023-01-29T00:48:20;33.27;29.80;43.39;;
67310;Laerm;65444;51.438;5.982;2023-01-29T00:48:31;34.96;30.31;44.95;;
67310;Laerm;65444;51.438;5.982;2023-01-29T00:48:42;35.34;30.35;49.21;;
67310;Laerm;65444;51.438;5.982;2023-01-29T00:48:52;32.85;31.30;36.31;;
67310;Laerm;65444;51.438;5.982;2023-01-29T00:49:02;32.99;30.98;34.58;;
67310;Laerm;65444;51.438;5.982;2023-01-29T00:49:13;34.45;31.59;37.64;;
67310;Laerm;65444;51.438;5.982;2023-01-29T00:49:23;34.41;31.44;38.85;;
67310;Laerm;65444;51.438;5.982;2023-01-29T00:49:33;33.14;30.43;36.81;;
67310;Laerm;65444;51.438;5.982;2023-01-29T00:49:46;33.53;31.40;35.99;;
67310;Laerm;65444;51.438;5.982;2023-01-29T00:50:00;33.23;30.85;38.08;;
67310;Laerm;65444;51.438;5.982;2023-01-29T00:50:11;33.36;31.01;36.33;;
67310;Laerm;65444;51.438;5.982;2023-01-29T00:50:21;32.32;30.33;35.88;;
67310;Laerm;65444;51.438;5.982;2023-01-29T00:50:31;32.56;30.69;37.33;;
67310;Laerm;65444;51.438;5.982;2023-01-29T00:50:42;32.63;30.76;36.67;;
67310;Laerm;65444;51.438;5.982;2023-01-29T00:50:52;33.45;31.02;37.89;;
67310;Laerm;65444;51.438;5.982;2023-01-29T00:51:02;32.54;30.70;35.64;;
67310;Laerm;65444;51.438;5.982;2023-01-29T00:51:13;33.22;31.25;39.74;;
67310;Laerm;65444;51.438;5.982;2023-01-29T00:51:25;32.53;30.76;35.44;;
67310;Laerm;65444;51.438;5.982;2023-01-29T00:51:36;32.52;30.66;36.53;;
67310;Laerm;65444;51.438;5.982;2023-01-29T00:51:46;32.97;30.99;39.92;;
67310;Laerm;65444;51.438;5.982;2023-01-29T00:52:15;33.95;30.63;40.03;;
67310;Laerm;65444;51.438;5.982;2023-01-29T00:52:34;35.92;31.50;43.45;;
67310;Laerm;65444;51.438;5.982;2023-01-29T00:52:49;34.68;31.18;40.99;;
67310;Laerm;65444;51.438;5.982;2023-01-29T00:53:01;33.96;30.56;38.30;;
67310;Laerm;65444;51.438;5.982;2023-01-29T00:53:12;34.40;31.26;41.80;;
67310;Laerm;65444;51.438;5.982;2023-01-29T00:53:22;33.58;30.80;38.58;;
67310;Laerm;65444;51.438;5.982;2023-01-29T00:53:32;33.91;31.47;37.54;;
67310;Laerm;65444;51.438;5.982;2023-01-29T00:53:45;33.40;31.30;36.59;;
67310;Laerm;65444;51.438;5.982;2023-01-29T00:53:55;32.95;30.36;38.61;;
67310;Laerm;65444;51.438;5.982;2023-01-29T00:54:07;32.86;30.27;36.86;;
67310;Laerm;65444;51.438;5.982;2023-01-29T00:54:17;32.88;30.51;36.32;;
67310;Laerm;65444;51.438;5.982;2023-01-29T00:54:27;33.33;31.12;36.93;;
67310;Laerm;65444;51.438;5.982;2023-01-29T00:54:38;32.75;30.73;37.32;;
67310;Laerm;65444;51.438;5.982;2023-01-29T00:54:48;32.73;30.39;37.86;;
67310;Laerm;65444;51.438;5.982;2023-01-29T00:54:59;33.33;31.41;36.57;;
67310;Laerm;65444;51.438;5.982;2023-01-29T00:55:09;33.65;31.28;37.06;;
67310;Laerm;65444;51.438;5.982;2023-01-29T00:55:20;33.92;31.12;43.51;;
67310;Laerm;65444;51.438;5.982;2023-01-29T00:55:30;33.65;31.06;37.32;;
67310;Laerm;65444;51.438;5.982;2023-01-29T00:55:40;33.41;30.90;41.53;;
67310;Laerm;65444;51.438;5.982;2023-01-29T00:55:53;32.68;30.73;38.43;;
67310;Laerm;65444;51.438;5.982;2023-01-29T00:56:03;36.09;30.31;50.29;;
67310;Laerm;65444;51.438;5.982;2023-01-29T00:56:13;34.09;30.56;43.70;;
67310;Laerm;65444;51.438;5.982;2023-01-29T00:56:24;33.54;30.91;39.50;;
67310;Laerm;65444;51.438;5.982;2023-01-29T00:56:35;33.74;30.86;35.69;;
67310;Laerm;65444;51.438;5.982;2023-01-29T00:56:48;37.69;32.52;43.12;;
67310;Laerm;65444;51.438;5.982;2023-01-29T00:56:58;32.74;30.13;35.57;;
67310;Laerm;65444;51.438;5.982;2023-01-29T00:57:11;35.59;31.11;42.17;;
67310;Laerm;65444;51.438;5.982;2023-01-29T00:57:22;37.23;34.12;40.96;;
67310;Laerm;65444;51.438;5.982;2023-01-29T00:57:33;34.23;31.31;37.82;;
67310;Laerm;65444;51.438;5.982;2023-01-29T00:57:44;33.08;30.89;40.17;;
67310;Laerm;65444;51.438;5.982;2023-01-29T00:57:54;33.22;30.74;41.72;;
67310;Laerm;65444;51.438;5.982;2023-01-29T00:58:04;33.84;31.23;41.56;;
67310;Laerm;65444;51.438;5.982;2023-01-29T00:58:14;32.78;30.63;36.29;;
67310;Laerm;65444;51.438;5.982;2023-01-29T00:58:31;32.95;30.80;35.12;;
67310;Laerm;65444;51.438;5.982;2023-01-29T00:58:43;34.28;31.01;42.66;;
67310;Laerm;65444;51.438;5.982;2023-01-29T00:58:53;32.82;30.01;40.46;;
67310;Laerm;65444;51.438;5.982;2023-01-29T00:59:03;32.36;30.68;35.31;;
67310;Laerm;65444;51.438;5.982;2023-01-29T00:59:14;35.47;31.28;40.58;;
67310;Laerm;65444;51.438;5.982;2023-01-29T00:59:24;37.19;32.26;42.36;;
67310;Laerm;65444;51.438;5.982;2023-01-29T00:59:34;32.05;29.96;34.41;;
67310;Laerm;65444;51.438;5.982;2023-01-29T00:59:44;32.41;30.66;36.36;;
67310;Laerm;65444;51.438;5.982;2023-01-29T00:59:55;32.27;30.06;39.52;;
67310;Laerm;65444;51.438;5.982;2023-01-29T01:00:07;34.57;30.44;47.87;;
67310;Laerm;65444;51.438;5.982;2023-01-29T01:00:20;38.63;30.51;47.70;;
67310;Laerm;65444;51.438;5.982;2023-01-29T01:00:31;33.22;30.93;37.34;;
67310;Laerm;65444;51.438;5.982;2023-01-29T01:00:41;32.35;30.77;34.28;;
67310;Laerm;65444;51.438;5.982;2023-01-29T01:00:51;33.38;30.46;36.42;;
67310;Laerm;65444;51.438;5.982;2023-01-29T01:01:23;32.61;29.95;38.54;;
67310;Laerm;65444;51.438;5.982;2023-01-29T01:01:52;32.64;30.77;35.06;;
67310;Laerm;65444;51.438;5.982;2023-01-29T01:02:21;32.97;29.77;44.28;;
67310;Laerm;65444;51.438;5.982;2023-01-29T01:02:50;31.86;29.74;38.13;;
67310;Laerm;65444;51.438;5.982;2023-01-29T01:03:16;31.64;29.79;36.95;;
67310;Laerm;65444;51.438;5.982;2023-01-29T01:03:27;31.76;29.89;34.59;;
67310;Laerm;65444;51.438;5.982;2023-01-29T01:03:37;31.85;30.04;33.55;;
67310;Laerm;65444;51.438;5.982;2023-01-29T01:03:51;31.73;29.41;35.79;;
67310;Laerm;65444;51.438;5.982;2023-01-29T01:04:03;31.73;29.97;33.51;;
67310;Laerm;65444;51.438;5.982;2023-01-29T01:04:14;31.67;29.75;33.72;;
67310;Laerm;65444;51.438;5.982;2023-01-29T01:04:24;32.17;29.73;37.00;;
67310;Laerm;65444;51.438;5.982;2023-01-29T01:04:34;34.03;30.16;41.68;;
67310;Laerm;65444;51.438;5.982;2023-01-29T01:04:44;33.10;30.12;40.80;;
67310;Laerm;65444;51.438;5.982;2023-01-29T01:04:55;31.65;30.14;33.24;;
67310;Laerm;65444;51.438;5.982;2023-01-29T01:05:05;31.78;30.25;36.19;;
67310;Laerm;65444;51.438;5.982;2023-01-29T01:05:16;32.71;29.75;39.20;;
67310;Laerm;65444;51.438;5.982;2023-01-29T01:05:27;31.53;29.99;36.76;;
67310;Laerm;65444;51.438;5.982;2023-01-29T01:05:38;36.39;30.33;47.68;;
67310;Laerm;65444;51.438;5.982;2023-01-29T01:05:51;32.71;30.11;37.86;;
67310;Laerm;65444;51.438;5.982;2023-01-29T01:06:11;32.35;30.30;34.95;;
67310;Laerm;65444;51.438;5.982;2023-01-29T01:06:21;31.57;29.91;33.25;;
67310;Laerm;65444;51.438;5.982;2023-01-29T01:06:31;31.54;29.88;38.13;;
67310;Laerm;65444;51.438;5.982;2023-01-29T01:06:42;32.18;30.06;33.85;;